Fremont, Michigan
Current Conditions -  °F | °C
As of 3:35 PM on Friday 28 Nov 2014 (Local Time) from KFFX Reporting Station
Overcast Overcast  
Wind Chill: 17°   Ceiling: 7500
Heat Index: 24°   Visibility: 10mi
Dew Point: 16°   Wind: 6mph
Humidity: 72%   Direction: 140°SE
Pressure: 30.08"   Gusts: NA
Location:  43.46°N, 85.95°W
Report Text: KFFX 282035Z AUTO 14005KT 10SM SCT060 OVC075 M04/M09 A3008 RMK AO2 T10451089
Loading
Personal Weather Stations






























Interactive Weather Map New forecast layout! Learn more

10-Day Weather Forecast

Advertisements
Track Severe Weather on mobile